createdAt,value
2022-07-30T00:01:36.501Z,69.00
2022-07-30T00:04:04.538Z,69.00
2022-07-30T00:06:32.772Z,69.10
2022-07-30T00:09:00.044Z,69.00
2022-07-30T00:11:28.018Z,69.10
2022-07-30T00:13:56.362Z,69.10
2022-07-30T00:16:23.953Z,69.20
2022-07-30T00:18:51.751Z,69.10
2022-07-30T00:21:32.075Z,69.20
2022-07-30T00:24:02.594Z,69.10
2022-07-30T00:26:30.166Z,69.20
2022-07-30T00:28:57.286Z,69.30
2022-07-30T00:31:24.489Z,69.30
2022-07-30T00:33:51.686Z,69.40
2022-07-30T00:36:18.977Z,69.40
2022-07-30T00:38:46.183Z,69.40
2022-07-30T00:41:15.409Z,69.40
2022-07-30T00:43:44.009Z,69.50
2022-07-30T00:46:11.777Z,69.50
2022-07-30T00:48:39.165Z,69.60
2022-07-30T00:51:06.892Z,69.70
2022-07-30T00:53:35.604Z,69.70
2022-07-30T00:56:03.356Z,69.70
2022-07-30T00:58:30.660Z,69.70
2022-07-30T01:00:58.157Z,69.80
2022-07-30T01:03:25.506Z,69.80
2022-07-30T01:05:52.875Z,70.00
2022-07-30T01:08:19.968Z,69.90
2022-07-30T01:10:47.215Z,70.10
2022-07-30T01:13:14.318Z,70.10
2022-07-30T01:15:42.151Z,70.10
2022-07-30T01:18:13.108Z,70.30
2022-07-30T01:21:02.464Z,70.40
2022-07-30T01:23:43.364Z,71.40
2022-07-30T01:26:16.106Z,71.00
2022-07-30T01:28:50.478Z,70.40
2022-07-30T01:33:57.314Z,70.60
2022-07-30T01:36:27.071Z,70.60
2022-07-30T01:38:55.379Z,70.60
2022-07-30T01:41:24.230Z,70.80
2022-07-30T01:43:51.717Z,70.80
2022-07-30T01:46:20.080Z,70.80
2022-07-30T01:48:47.886Z,70.90
2022-07-30T01:51:18.574Z,70.90
2022-07-30T01:53:48.250Z,71.10
2022-07-30T01:56:16.944Z,71.00
2022-07-30T01:58:47.002Z,71.00
2022-07-30T02:01:14.524Z,71.00
2022-07-30T02:03:42.046Z,71.00
2022-07-30T02:06:19.912Z,71.00
2022-07-30T02:08:58.366Z,71.50
2022-07-30T02:11:44.100Z,71.80
2022-07-30T02:14:48.559Z,71.10
2022-07-30T02:17:30.172Z,72.90
2022-07-30T02:19:59.484Z,71.40
2022-07-30T02:22:34.366Z,71.20
2022-07-30T02:25:03.811Z,71.40
2022-07-30T02:27:39.166Z,71.40
2022-07-30T02:30:08.042Z,71.80
2022-07-30T02:32:39.639Z,71.50
2022-07-30T02:35:15.019Z,71.50
2022-07-30T02:37:44.468Z,71.70
2022-07-30T02:40:19.891Z,71.50
2022-07-30T02:42:50.335Z,71.80
2022-07-30T02:45:19.115Z,71.70
2022-07-30T02:47:50.522Z,71.60
2022-07-30T02:50:19.238Z,71.80
2022-07-30T02:52:48.108Z,71.70
2022-07-30T02:55:18.119Z,71.60
2022-07-30T02:57:47.422Z,71.70
2022-07-30T03:00:14.976Z,71.80
2022-07-30T03:02:43.883Z,71.80
2022-07-30T03:05:12.058Z,71.90
2022-07-30T03:07:40.687Z,71.90
2022-07-30T03:10:09.217Z,71.90
2022-07-30T03:12:37.964Z,71.90
2022-07-30T03:15:06.500Z,71.90
2022-07-30T03:17:39.213Z,71.80
2022-07-30T03:20:11.691Z,72.00
2022-07-30T03:22:47.174Z,72.20
2022-07-30T03:25:24.157Z,72.00
2022-07-30T03:27:52.678Z,72.20
2022-07-30T03:30:20.254Z,72.00
2022-07-30T03:32:48.264Z,72.10
2022-07-30T03:35:20.250Z,72.10
2022-07-30T03:37:49.096Z,72.10
2022-07-30T03:40:16.706Z,72.20
2022-07-30T03:42:45.734Z,72.20
2022-07-30T03:45:14.145Z,72.20
2022-07-30T03:47:43.486Z,72.20
2022-07-30T03:50:12.600Z,72.40
2022-07-30T03:52:41.602Z,72.40
2022-07-30T03:55:12.226Z,72.50
2022-07-30T03:57:39.898Z,72.50
2022-07-30T04:00:15.590Z,72.50
2022-07-30T04:02:44.992Z,73.10
2022-07-30T04:05:13.937Z,72.60
2022-07-30T04:07:45.091Z,72.60
2022-07-30T04:10:14.579Z,72.90
2022-07-30T04:12:41.777Z,72.70
2022-07-30T04:16:37.623Z,72.70
2022-07-30T04:18:03.161Z,72.80
2022-07-30T04:20:37.354Z,73.00
2022-07-30T04:23:05.230Z,72.90
2022-07-30T04:25:33.552Z,72.80
2022-07-30T04:28:03.701Z,72.90
2022-07-30T04:30:35.433Z,72.90
2022-07-30T04:33:04.876Z,72.90
2022-07-30T04:35:51.239Z,72.90
2022-07-30T04:38:20.248Z,72.90
2022-07-30T04:40:48.332Z,72.80
2022-07-30T04:43:16.334Z,72.90
2022-07-30T04:45:43.921Z,72.90
2022-07-30T04:48:11.138Z,72.90
2022-07-30T04:50:42.566Z,73.00
2022-07-30T04:53:10.836Z,73.10
2022-07-30T04:55:43.588Z,73.00
2022-07-30T04:58:12.628Z,73.10
2022-07-30T05:00:42.229Z,73.00
2022-07-30T05:03:13.798Z,73.10
2022-07-30T05:05:42.312Z,73.30
2022-07-30T05:08:09.810Z,73.20
2022-07-30T05:10:38.375Z,73.20
2022-07-30T05:13:11.348Z,73.30
2022-07-30T05:15:40.567Z,73.20
2022-07-30T05:18:08.671Z,73.30
2022-07-30T05:20:35.856Z,73.40
2022-07-30T05:23:03.795Z,73.50
2022-07-30T05:25:31.002Z,73.60
2022-07-30T05:27:58.353Z,73.60
2022-07-30T05:30:27.787Z,73.70
2022-07-30T05:32:56.015Z,73.80
2022-07-30T05:35:23.452Z,73.80
2022-07-30T05:37:50.684Z,73.80
2022-07-30T05:40:17.893Z,73.90
2022-07-30T05:42:44.991Z,73.90
2022-07-30T05:45:12.196Z,73.90
2022-07-30T05:47:39.229Z,74.00
2022-07-30T05:50:07.055Z,74.00
2022-07-30T05:52:34.204Z,74.00
2022-07-30T05:55:01.630Z,74.10
2022-07-30T05:57:28.874Z,74.10
2022-07-30T05:59:56.037Z,74.20
2022-07-30T06:02:24.421Z,74.30
2022-07-30T06:04:52.401Z,74.50
2022-07-30T06:07:19.788Z,74.70
2022-07-30T06:09:47.372Z,74.80
2022-07-30T06:12:14.554Z,74.80
2022-07-30T06:14:41.821Z,74.80
2022-07-30T06:17:09.058Z,74.60
2022-07-30T06:19:36.459Z,74.60
2022-07-30T06:22:06.873Z,74.80
2022-07-30T06:24:34.693Z,74.60
2022-07-30T06:27:02.353Z,74.60
2022-07-30T06:29:29.751Z,74.70
2022-07-30T06:31:56.973Z,74.80
2022-07-30T06:34:24.316Z,74.70
2022-07-30T06:36:51.505Z,74.60
2022-07-30T06:39:56.910Z,74.50
2022-07-30T06:42:06.175Z,74.30
2022-07-30T06:44:33.375Z,74.00
2022-07-30T06:47:05.414Z,73.90
2022-07-30T06:49:36.193Z,73.90
2022-07-30T06:52:04.776Z,73.90
2022-07-30T06:54:32.152Z,74.00
2022-07-30T06:56:59.490Z,74.00
2022-07-30T06:59:27.778Z,73.90
2022-07-30T07:01:55.193Z,73.90
2022-07-30T07:04:23.213Z,74.00
2022-07-30T07:06:50.635Z,74.10
2022-07-30T07:09:17.923Z,74.10
2022-07-30T07:11:45.114Z,74.10
2022-07-30T07:14:12.171Z,73.90
2022-07-30T07:16:39.597Z,73.60
2022-07-30T07:19:06.761Z,73.50
2022-07-30T07:21:34.072Z,73.50
2022-07-30T07:24:02.861Z,73.40
2022-07-30T07:26:31.915Z,73.60
2022-07-30T07:29:03.375Z,73.80
2022-07-30T07:32:05.585Z,73.70
2022-07-30T07:34:19.463Z,73.80
2022-07-30T07:36:46.562Z,73.50
2022-07-30T07:39:14.831Z,73.10
2022-07-30T07:41:48.465Z,73.10
2022-07-30T07:44:16.474Z,72.80
2022-07-30T07:46:43.950Z,72.80
2022-07-30T07:49:11.215Z,72.80
2022-07-30T07:51:47.619Z,72.70
2022-07-30T07:54:24.124Z,72.40
2022-07-30T07:56:52.761Z,72.00
2022-07-30T07:59:20.468Z,71.50
2022-07-30T08:01:47.875Z,71.30
2022-07-30T08:04:17.831Z,71.50
2022-07-30T08:06:45.382Z,71.30
2022-07-30T08:09:12.536Z,71.20
2022-07-30T08:11:39.812Z,70.70
2022-07-30T08:14:06.982Z,70.60
2022-07-30T08:16:34.492Z,70.30
2022-07-30T08:19:01.786Z,69.90
2022-07-30T08:21:29.026Z,70.00
2022-07-30T08:23:56.236Z,70.10
2022-07-30T08:26:23.460Z,70.20
2022-07-30T08:28:50.543Z,69.90
2022-07-30T08:31:21.787Z,69.10
2022-07-30T08:33:48.984Z,69.10
2022-07-30T08:36:16.275Z,69.20
2022-07-30T08:38:43.488Z,69.10
2022-07-30T08:41:11.251Z,69.00
2022-07-30T08:43:38.595Z,68.50
2022-07-30T08:46:10.506Z,67.60
2022-07-30T08:48:37.674Z,67.60
2022-07-30T08:51:05.154Z,66.80
2022-07-30T08:53:34.439Z,67.60
2022-07-30T08:56:02.924Z,67.70
2022-07-30T08:58:36.315Z,67.60
2022-07-30T09:01:05.645Z,66.90
2022-07-30T09:03:33.431Z,67.20
2022-07-30T09:06:05.291Z,66.90
2022-07-30T09:08:32.893Z,66.60
2022-07-30T09:11:00.660Z,65.90
2022-07-30T09:13:35.015Z,66.80
2022-07-30T09:16:04.739Z,66.40
2022-07-30T09:18:51.600Z,66.50
2022-07-30T09:21:28.411Z,66.20
2022-07-30T09:24:15.853Z,65.40
2022-07-30T09:27:05.418Z,62.90
2022-07-30T09:29:33.418Z,63.90
2022-07-30T09:32:07.528Z,64.50
2022-07-30T09:34:40.154Z,63.80
2022-07-30T09:37:10.647Z,64.30
2022-07-30T09:39:42.351Z,64.40
2022-07-30T09:42:27.391Z,64.70
2022-07-30T09:45:13.705Z,64.30
2022-07-30T09:47:53.553Z,61.70
2022-07-30T09:50:29.936Z,63.40
2022-07-30T09:53:09.607Z,63.00
2022-07-30T09:58:45.545Z,62.70
2022-07-30T10:01:13.550Z,60.00
2022-07-30T10:03:46.492Z,61.90
2022-07-30T10:06:15.470Z,61.20
2022-07-30T10:08:51.222Z,61.10
2022-07-30T10:11:26.151Z,61.00
2022-07-30T10:14:00.301Z,61.60
2022-07-30T10:16:29.531Z,62.10
2022-07-30T10:19:00.210Z,61.60
2022-07-30T10:21:28.750Z,61.40
2022-07-30T10:24:00.276Z,61.10
2022-07-30T10:26:35.388Z,61.10
2022-07-30T10:29:05.260Z,60.40
2022-07-30T10:31:48.942Z,60.10
2022-07-30T10:34:23.805Z,59.90
2022-07-30T10:36:58.518Z,59.40
2022-07-30T10:39:34.663Z,58.60
2022-07-30T10:42:15.991Z,59.20
2022-07-30T10:44:56.674Z,59.20
2022-07-30T10:47:29.782Z,59.30
2022-07-30T10:50:19.412Z,60.10
2022-07-30T10:53:00.158Z,60.40
2022-07-30T10:55:36.569Z,61.00
2022-07-30T10:58:14.512Z,61.20
2022-07-30T11:00:52.107Z,60.90
2022-07-30T11:03:41.688Z,61.10
2022-07-30T11:06:15.433Z,59.80
2022-07-30T11:08:48.125Z,59.50
2022-07-30T11:12:04.859Z,59.50
2022-07-30T11:14:08.971Z,59.20
2022-07-30T11:16:36.993Z,59.60
2022-07-30T11:19:55.315Z,59.70
2022-07-30T11:22:38.723Z,60.00
2022-07-30T11:25:13.489Z,60.70
2022-07-30T11:27:48.558Z,60.70
2022-07-30T11:30:23.443Z,61.70
2022-07-30T11:32:53.587Z,62.40
2022-07-30T11:35:32.373Z,62.80
2022-07-30T11:38:08.149Z,63.00
2022-07-30T11:40:37.326Z,62.60
2022-07-30T11:43:37.022Z,62.20
2022-07-30T11:46:28.949Z,62.40
2022-07-30T11:49:05.885Z,62.70
2022-07-30T11:51:44.745Z,62.80
2022-07-30T11:54:12.656Z,62.40
2022-07-30T11:56:53.380Z,62.00
2022-07-30T11:59:20.823Z,61.70
2022-07-30T12:02:00.299Z,61.70
2022-07-30T12:04:27.850Z,61.70
2022-07-30T12:06:55.022Z,61.50
2022-07-30T12:09:27.450Z,61.40
2022-07-30T12:11:56.422Z,61.70
2022-07-30T12:14:23.828Z,62.30
2022-07-30T12:16:53.683Z,62.80
2022-07-30T12:19:21.020Z,62.50
2022-07-30T12:21:53.078Z,62.00
2022-07-30T12:24:26.956Z,61.90
2022-07-30T12:27:06.231Z,61.60
2022-07-30T12:29:36.975Z,60.90
2022-07-30T12:32:04.942Z,61.20
2022-07-30T12:34:32.241Z,60.90
2022-07-30T12:37:10.148Z,60.80
2022-07-30T12:39:37.610Z,58.60
2022-07-30T12:42:05.257Z,59.40
2022-07-30T12:44:45.014Z,58.50
2022-07-30T12:47:26.956Z,56.20
2022-07-30T12:49:55.200Z,57.10
2022-07-30T12:52:32.045Z,56.00
2022-07-30T12:55:13.383Z,58.40
2022-07-30T12:58:08.319Z,56.60
2022-07-30T13:00:45.131Z,53.90
2022-07-30T13:03:29.540Z,53.60
2022-07-30T13:05:57.923Z,52.90
2022-07-30T13:08:49.432Z,54.90
2022-07-30T13:11:18.845Z,50.20
2022-07-30T13:13:47.027Z,53.50
2022-07-30T13:16:15.079Z,52.50
2022-07-30T13:18:43.083Z,51.20
2022-07-30T13:21:11.518Z,52.20
2022-07-30T13:23:41.050Z,52.20
2022-07-30T13:26:10.282Z,52.50
2022-07-30T13:28:37.785Z,51.90
2022-07-30T13:31:05.433Z,51.50
2022-07-30T13:33:32.999Z,50.90
2022-07-30T13:36:00.318Z,50.50
2022-07-30T13:38:28.320Z,50.30
2022-07-30T13:41:01.898Z,51.50
2022-07-30T13:43:33.757Z,52.00
2022-07-30T13:46:03.304Z,52.20
2022-07-30T13:48:30.855Z,52.90
2022-07-30T13:50:58.154Z,53.40
2022-07-30T13:53:25.746Z,53.70
2022-07-30T13:55:53.053Z,54.00
2022-07-30T13:58:20.274Z,54.30
2022-07-30T14:00:48.244Z,54.50
2022-07-30T14:03:15.957Z,54.80
2022-07-30T14:05:44.199Z,55.10
2022-07-30T14:08:12.298Z,55.20
2022-07-30T14:10:40.937Z,55.10
2022-07-30T14:13:10.527Z,55.60
2022-07-30T14:15:43.347Z,55.60
2022-07-30T14:18:10.632Z,55.50
2022-07-30T14:20:37.953Z,55.30
2022-07-30T14:23:05.121Z,55.20
2022-07-30T14:25:32.476Z,54.80
2022-07-30T14:27:59.664Z,54.70
2022-07-30T14:30:27.241Z,54.40
2022-07-30T14:32:59.416Z,54.70
2022-07-30T14:35:30.306Z,54.70
2022-07-30T14:37:57.418Z,55.00
2022-07-30T14:40:24.625Z,55.20
2022-07-30T14:42:51.919Z,54.90
2022-07-30T14:45:23.500Z,55.00
2022-07-30T14:47:50.643Z,55.20
2022-07-30T14:50:17.978Z,54.10
2022-07-30T14:52:47.146Z,53.70
2022-07-30T14:55:14.594Z,54.10
2022-07-30T14:57:43.543Z,53.80
2022-07-30T15:00:12.069Z,54.20
2022-07-30T15:02:40.950Z,54.10
2022-07-30T15:05:09.488Z,54.80
2022-07-30T15:07:37.324Z,55.10
2022-07-30T15:10:07.389Z,56.10
2022-07-30T15:12:34.931Z,57.50
2022-07-30T15:15:06.605Z,57.60
2022-07-30T15:17:37.637Z,57.60
2022-07-30T15:20:08.009Z,58.10
2022-07-30T15:22:36.176Z,58.10
2022-07-30T15:25:03.667Z,58.30
2022-07-30T15:27:34.000Z,58.60
2022-07-30T15:30:02.031Z,58.40
2022-07-30T15:32:29.417Z,58.40
2022-07-30T15:34:58.676Z,58.20
2022-07-30T15:37:26.633Z,58.30
2022-07-30T15:39:53.909Z,58.20
2022-07-30T15:42:21.161Z,58.10
2022-07-30T15:44:49.264Z,58.00
2022-07-30T15:47:16.551Z,57.70
2022-07-30T15:49:44.703Z,57.00
2022-07-30T15:52:12.195Z,56.70
2022-07-30T15:54:39.439Z,56.60
2022-07-30T15:57:06.717Z,56.60
2022-07-30T15:59:33.897Z,56.50
2022-07-30T16:02:01.402Z,56.50
2022-07-30T16:04:31.851Z,56.60
2022-07-30T16:07:01.589Z,56.60
2022-07-30T16:09:28.980Z,56.30
2022-07-30T16:11:57.235Z,56.10
2022-07-30T16:14:26.818Z,55.40
2022-07-30T16:16:54.018Z,54.50
2022-07-30T16:19:21.249Z,53.20
2022-07-30T16:21:48.463Z,51.60
2022-07-30T16:24:15.590Z,51.10
2022-07-30T16:26:43.193Z,50.30
2022-07-30T16:29:13.646Z,49.50
2022-07-30T16:31:41.468Z,49.40
2022-07-30T16:34:08.789Z,49.70
2022-07-30T16:36:36.219Z,49.00
2022-07-30T16:39:04.231Z,49.80
2022-07-30T16:41:31.426Z,50.10
2022-07-30T16:43:58.641Z,49.90
2022-07-30T16:46:25.911Z,49.30
2022-07-30T16:48:53.272Z,49.10
2022-07-30T16:51:20.731Z,49.40
2022-07-30T16:53:48.794Z,49.20
2022-07-30T16:56:16.927Z,49.20
2022-07-30T16:58:44.297Z,48.90
2022-07-30T17:01:11.596Z,48.90
2022-07-30T17:03:38.958Z,49.10
2022-07-30T17:06:06.428Z,49.20
2022-07-30T17:08:33.657Z,50.20
2022-07-30T17:11:01.035Z,50.30
2022-07-30T17:13:28.459Z,50.50
2022-07-30T17:15:55.726Z,50.90
2022-07-30T17:18:23.452Z,50.90
2022-07-30T17:20:51.307Z,50.50
2022-07-30T17:23:18.531Z,50.60
2022-07-30T17:25:46.014Z,50.90
2022-07-30T17:28:13.092Z,51.10
2022-07-30T17:30:40.335Z,51.10
2022-07-30T17:33:07.541Z,51.00
2022-07-30T17:35:35.080Z,50.70
2022-07-30T17:38:02.386Z,50.70
2022-07-30T17:40:31.862Z,50.50
2022-07-30T17:43:04.386Z,50.30
2022-07-30T17:45:34.814Z,50.10
2022-07-30T17:48:02.921Z,50.30
2022-07-30T17:50:32.497Z,50.20
2022-07-30T17:53:00.442Z,50.30
2022-07-30T17:55:35.092Z,50.70
2022-07-30T17:58:04.328Z,51.20
2022-07-30T18:00:32.372Z,51.30
2022-07-30T18:02:59.635Z,51.40
2022-07-30T18:05:27.103Z,51.40
2022-07-30T18:07:54.382Z,51.20
2022-07-30T18:10:21.707Z,51.20
2022-07-30T18:12:49.690Z,51.30
2022-07-30T18:15:18.358Z,51.60
2022-07-30T18:17:46.047Z,51.70
2022-07-30T18:20:14.006Z,51.70
2022-07-30T18:22:41.334Z,51.60
2022-07-30T18:25:18.106Z,51.60
2022-07-30T18:27:47.573Z,51.60
2022-07-30T18:30:15.504Z,51.60
2022-07-30T18:32:43.400Z,51.70
2022-07-30T18:35:14.570Z,51.80
2022-07-30T18:37:46.015Z,51.90
2022-07-30T18:40:20.597Z,52.10
2022-07-30T18:42:50.835Z,52.20
2022-07-30T18:45:18.284Z,52.30
2022-07-30T18:47:46.708Z,52.60
2022-07-30T18:50:16.189Z,52.80
2022-07-30T18:52:43.590Z,52.90
2022-07-30T18:55:12.606Z,53.00
2022-07-30T18:57:41.223Z,53.10
2022-07-30T19:00:30.970Z,53.20
2022-07-30T19:03:00.289Z,53.30
2022-07-30T19:05:27.851Z,53.50
2022-07-30T19:07:58.085Z,53.80
2022-07-30T19:10:27.393Z,54.00
2022-07-30T19:12:55.741Z,54.20
2022-07-30T19:15:23.582Z,54.50
2022-07-30T19:17:51.757Z,54.70
2022-07-30T19:20:20.052Z,55.00
2022-07-30T19:22:47.406Z,55.20
2022-07-30T19:25:14.970Z,55.40
2022-07-30T19:27:42.370Z,55.60
2022-07-30T19:30:10.302Z,55.90
2022-07-30T19:32:37.542Z,56.10
2022-07-30T19:35:05.443Z,56.20
2022-07-30T19:37:40.476Z,56.30
2022-07-30T19:40:09.320Z,56.40
2022-07-30T19:42:37.014Z,56.60
2022-07-30T19:45:12.981Z,56.80
2022-07-30T19:47:42.307Z,57.00
2022-07-30T19:50:11.347Z,57.20
2022-07-30T19:52:50.963Z,57.40
2022-07-30T19:55:34.947Z,57.70
2022-07-30T19:58:16.270Z,57.70
2022-07-30T20:00:49.365Z,57.90
2022-07-30T20:03:25.568Z,58.40
2022-07-30T20:05:54.744Z,58.10
2022-07-30T20:08:26.135Z,58.20
2022-07-30T20:10:53.475Z,58.50
2022-07-30T20:13:45.000Z,58.60
2022-07-30T20:16:17.797Z,58.70
2022-07-30T20:18:45.825Z,59.10
2022-07-30T20:21:16.446Z,59.00
2022-07-30T20:23:45.237Z,59.20
2022-07-30T20:26:14.377Z,59.30
2022-07-30T20:28:52.693Z,59.60
2022-07-30T20:31:20.358Z,59.80
2022-07-30T20:33:49.488Z,59.70
2022-07-30T20:36:18.298Z,59.90
2022-07-30T20:38:47.200Z,60.10
2022-07-30T20:41:16.340Z,60.20
2022-07-30T20:43:46.087Z,60.40
2022-07-30T20:46:20.722Z,60.50
2022-07-30T20:48:52.276Z,60.60
2022-07-30T20:51:19.886Z,60.60
2022-07-30T20:53:47.395Z,60.70
2022-07-30T20:56:19.401Z,60.90
2022-07-30T20:58:47.440Z,61.10
2022-07-30T21:01:17.855Z,61.20
2022-07-30T21:03:47.839Z,61.30
2022-07-30T21:06:16.900Z,61.50
2022-07-30T21:08:43.926Z,61.80
2022-07-30T21:11:12.619Z,61.90
2022-07-30T21:13:41.447Z,62.10
2022-07-30T21:16:16.097Z,62.30
2022-07-30T21:18:50.489Z,62.60
2022-07-30T21:21:30.761Z,62.80
2022-07-30T21:24:11.463Z,62.90
2022-07-30T21:26:42.551Z,62.90
2022-07-30T21:29:10.369Z,63.20
2022-07-30T21:32:08.739Z,63.20
2022-07-30T21:34:26.422Z,63.30
2022-07-30T21:36:55.452Z,63.40
2022-07-30T21:39:28.667Z,63.50
2022-07-30T21:41:57.295Z,63.60
2022-07-30T21:44:24.773Z,63.60
2022-07-30T21:46:52.769Z,63.70
2022-07-30T21:49:20.902Z,63.90
2022-07-30T21:51:48.573Z,63.90
2022-07-30T21:54:26.527Z,64.00
2022-07-30T21:56:58.161Z,64.00
2022-07-30T21:59:27.636Z,64.00
2022-07-30T22:01:56.002Z,64.10
2022-07-30T22:04:23.897Z,64.10
2022-07-30T22:06:54.477Z,64.10
2022-07-30T22:09:34.027Z,64.20
2022-07-30T22:12:09.810Z,64.30
2022-07-30T22:14:39.636Z,64.40
2022-07-30T22:17:22.516Z,64.30
2022-07-30T22:19:51.996Z,64.30
2022-07-30T22:22:27.231Z,64.40
2022-07-30T22:25:09.815Z,64.60
2022-07-30T22:27:56.041Z,64.60
2022-07-30T22:30:27.076Z,64.70
2022-07-30T22:32:55.557Z,64.70
2022-07-30T22:35:33.961Z,64.70
2022-07-30T22:38:03.855Z,64.80
2022-07-30T22:40:32.078Z,64.70
2022-07-30T22:42:59.720Z,64.70
2022-07-30T22:45:46.811Z,64.90
2022-07-30T22:48:16.951Z,64.80
2022-07-30T22:50:44.235Z,64.80
2022-07-30T22:53:56.884Z,64.80
2022-07-30T22:56:04.387Z,64.70
2022-07-30T22:58:32.206Z,64.50
2022-07-30T23:00:59.541Z,64.50
2022-07-30T23:03:26.715Z,64.40
2022-07-30T23:05:54.993Z,64.40
2022-07-30T23:08:29.945Z,64.60
2022-07-30T23:12:31.099Z,64.90
2022-07-30T23:13:46.727Z,64.90
2022-07-30T23:16:13.996Z,65.00
2022-07-30T23:18:41.109Z,65.00
2022-07-30T23:21:08.465Z,65.10
2022-07-30T23:23:35.949Z,65.10
2022-07-30T23:26:05.161Z,65.10
2022-07-30T23:28:32.778Z,65.30
2022-07-30T23:31:00.033Z,65.30
2022-07-30T23:33:27.707Z,65.30
2022-07-30T23:35:55.001Z,65.50
2022-07-30T23:38:22.352Z,65.60
2022-07-30T23:40:49.683Z,65.60
2022-07-30T23:43:17.328Z,65.70
2022-07-30T23:45:44.734Z,65.90
2022-07-30T23:48:12.270Z,66.10
2022-07-30T23:50:39.416Z,66.10
2022-07-30T23:53:06.744Z,66.20
2022-07-30T23:55:34.148Z,66.40
2022-07-30T23:58:01.327Z,66.50
